createdAt,value
2018-12-10T00:01:46.065Z,98031.75
2018-12-10T00:04:18.374Z,98031.93
2018-12-10T00:06:50.771Z,98036.30
2018-12-10T00:09:21.377Z,98043.61
2018-12-10T00:11:52.185Z,98041.08
2018-12-10T00:14:23.121Z,98047.13
2018-12-10T00:16:54.414Z,98052.14
2018-12-10T00:19:24.973Z,98052.88
2018-12-10T00:21:55.550Z,98056.95
2018-12-10T00:24:26.111Z,98073.27
2018-12-10T00:26:56.701Z,98073.75
2018-12-10T00:29:27.780Z,98070.11
2018-12-10T00:31:58.394Z,98076.08
2018-12-10T00:34:29.953Z,98075.08
2018-12-10T00:37:00.884Z,98079.31
2018-12-10T00:39:31.529Z,98076.30
2018-12-10T00:42:02.358Z,98068.22
2018-12-10T00:44:32.929Z,98075.64
2018-12-10T00:47:04.078Z,98080.05
2018-12-10T00:49:34.649Z,98089.92
2018-12-10T00:52:05.511Z,98101.23
2018-12-10T00:54:36.061Z,98104.27
2018-12-10T00:57:07.269Z,98101.16
2018-12-10T00:59:37.877Z,98110.58
2018-12-10T01:02:08.974Z,98127.34
2018-12-10T01:04:39.522Z,98116.08
2018-12-10T01:07:10.108Z,98122.75
2018-12-10T01:09:40.653Z,98121.42
2018-12-10T01:12:12.185Z,98133.64
2018-12-10T01:17:12.275Z,98149.67
2018-12-10T01:19:42.954Z,98154.24
2018-12-10T01:22:13.813Z,98150.91
2018-12-10T01:24:44.488Z,98155.62
2018-12-10T01:27:15.338Z,98157.81
2018-12-10T01:29:45.992Z,98164.37
2018-12-10T01:32:16.774Z,98163.94
2018-12-10T01:34:47.806Z,98161.90
2018-12-10T01:37:18.473Z,98168.54
2018-12-10T01:39:49.114Z,98167.60
2018-12-10T01:42:19.673Z,98170.66
2018-12-10T01:44:50.294Z,98183.15
2018-12-10T01:47:20.858Z,98183.77
2018-12-10T01:49:51.593Z,98184.99
2018-12-10T01:52:22.674Z,98185.98
2018-12-10T01:54:53.265Z,98190.72
2018-12-10T01:57:24.021Z,98193.08
2018-12-10T01:59:54.646Z,98198.89
2018-12-10T02:02:25.291Z,98197.39
2018-12-10T02:04:56.141Z,98192.33
2018-12-10T02:07:28.034Z,98190.33
2018-12-10T02:09:58.917Z,98193.39
2018-12-10T02:12:30.229Z,98201.76
2018-12-10T02:15:01.227Z,98213.19
2018-12-10T02:17:32.765Z,98210.83
2018-12-10T02:20:03.361Z,98213.26
2018-12-10T02:22:33.913Z,98203.17
2018-12-10T02:25:04.961Z,98206.98
2018-12-10T02:27:35.582Z,98211.25
2018-12-10T02:30:06.632Z,98217.34
2018-12-10T02:32:37.188Z,98219.94
2018-12-10T02:35:07.778Z,98225.98
2018-12-10T02:37:38.658Z,98232.73
2018-12-10T02:40:10.111Z,98231.52
2018-12-10T02:42:41.121Z,98249.83
2018-12-10T02:45:12.411Z,98243.66
2018-12-10T02:47:42.981Z,98244.88
2018-12-10T02:50:14.373Z,98255.01
2018-12-10T02:52:45.205Z,98248.37
2018-12-10T02:55:15.794Z,98247.47
2018-12-10T02:57:46.549Z,98248.69
2018-12-10T03:00:17.158Z,98254.77
2018-12-10T03:02:47.807Z,98260.34
2018-12-10T03:05:18.361Z,98278.95
2018-12-10T03:07:48.978Z,98278.73
2018-12-10T03:10:19.539Z,98284.07
2018-12-10T03:12:50.135Z,98270.67
2018-12-10T03:15:20.738Z,98268.30
2018-12-10T03:17:51.590Z,98266.03
2018-12-10T03:20:22.424Z,98280.36
2018-12-10T03:22:52.998Z,98261.29
2018-12-10T03:25:23.827Z,98269.14
2018-12-10T03:27:54.418Z,98271.12
2018-12-10T03:30:25.058Z,98284.00
2018-12-10T03:32:56.135Z,98280.50
2018-12-10T03:35:26.805Z,98278.34
2018-12-10T03:37:57.650Z,98278.73
2018-12-10T03:40:29.024Z,98285.44
2018-12-10T03:42:59.881Z,98286.59
2018-12-10T03:45:30.741Z,98279.95
2018-12-10T03:48:01.297Z,98283.02
2018-12-10T03:50:32.155Z,98292.37
2018-12-10T03:53:02.792Z,98295.03
2018-12-10T03:55:33.654Z,98295.58
2018-12-10T03:58:04.702Z,98300.77
2018-12-10T04:00:35.598Z,98313.64
2018-12-10T04:03:07.553Z,98309.36
2018-12-10T04:05:38.369Z,98315.55
2018-12-10T04:08:09.183Z,98315.70
2018-12-10T04:10:40.319Z,98318.97
2018-12-10T04:13:11.828Z,98314.88
2018-12-10T04:15:43.125Z,98320.42
2018-12-10T04:18:14.202Z,98322.48
2018-12-10T04:20:44.846Z,98319.98
2018-12-10T04:23:15.698Z,98320.21
2018-12-10T04:25:48.237Z,98321.72
2018-12-10T04:28:19.264Z,98321.86
2018-12-10T04:30:50.443Z,98334.53
2018-12-10T04:33:21.281Z,98327.59
2018-12-10T04:35:52.123Z,98331.17
2018-12-10T04:38:22.726Z,98338.20
2018-12-10T04:40:54.046Z,98332.40
2018-12-10T04:43:24.708Z,98334.67
2018-12-10T04:45:55.554Z,98328.44
2018-12-10T04:48:26.161Z,98327.59
2018-12-10T04:50:56.772Z,98331.23
2018-12-10T04:53:27.702Z,98338.34
2018-12-10T04:55:58.811Z,98343.14
2018-12-10T04:58:29.423Z,98346.48
2018-12-10T05:01:00.002Z,98343.38
2018-12-10T05:03:30.669Z,98341.70
2018-12-10T05:06:01.620Z,98350.22
2018-12-10T05:08:32.413Z,98353.81
2018-12-10T05:11:03.202Z,98348.19
2018-12-10T05:13:33.789Z,98349.92
2018-12-10T05:16:04.381Z,98345.20
2018-12-10T05:18:34.926Z,98353.30
2018-12-10T05:21:05.824Z,98360.36
2018-12-10T05:23:36.378Z,98365.72
2018-12-10T05:26:06.958Z,98376.70
2018-12-10T05:28:37.786Z,98382.95
2018-12-10T05:31:09.166Z,98382.56
2018-12-10T05:33:40.089Z,98384.69
2018-12-10T05:36:10.930Z,98391.55
2018-12-10T05:38:41.961Z,98395.30
2018-12-10T05:41:12.546Z,98398.72
2018-12-10T05:43:43.150Z,98393.76
2018-12-10T05:46:14.249Z,98404.45
2018-12-10T05:48:44.977Z,98407.86
2018-12-10T05:51:15.554Z,98414.81
2018-12-10T05:53:46.126Z,98420.67
2018-12-10T05:56:16.796Z,98423.27
2018-12-10T05:58:47.534Z,98435.72
2018-12-10T06:01:18.141Z,98443.64
2018-12-10T06:03:48.805Z,98453.08
2018-12-10T06:06:19.383Z,98450.56
2018-12-10T06:08:49.954Z,98449.44
2018-12-10T06:11:20.554Z,98450.37
2018-12-10T06:13:51.484Z,98463.69
2018-12-10T06:16:22.030Z,98470.25
2018-12-10T06:18:52.610Z,98467.73
2018-12-10T06:21:23.260Z,98473.30
2018-12-10T06:23:53.926Z,98476.66
2018-12-10T06:26:24.666Z,98474.06
2018-12-10T06:28:55.246Z,98484.14
2018-12-10T06:31:25.836Z,98479.47
2018-12-10T06:33:56.980Z,98489.48
2018-12-10T06:36:27.534Z,98488.72
2018-12-10T06:38:58.375Z,98492.68
2018-12-10T06:41:28.976Z,98490.45
2018-12-10T06:43:59.593Z,98494.73
2018-12-10T06:46:30.218Z,98503.05
2018-12-10T06:49:00.816Z,98499.74
2018-12-10T06:51:31.401Z,98493.19
2018-12-10T06:56:50.636Z,98507.70
2018-12-10T06:59:21.208Z,98511.88
2018-12-10T07:01:51.826Z,98519.44
2018-12-10T07:04:22.554Z,98515.30
2018-12-10T07:06:53.162Z,98522.39
2018-12-10T07:09:23.734Z,98524.44
2018-12-10T07:11:54.309Z,98521.70
2018-12-10T07:14:24.897Z,98520.05
2018-12-10T07:16:56.098Z,98528.19
2018-12-10T07:19:26.652Z,98525.98
2018-12-10T07:21:57.280Z,98531.32
2018-12-10T07:24:27.889Z,98526.39
2018-12-10T07:26:59.687Z,98534.62
2018-12-10T07:29:30.274Z,98539.49
2018-12-10T07:32:00.867Z,98536.50
2018-12-10T07:34:31.407Z,98544.95
2018-12-10T07:37:02.446Z,98550.30
2018-12-10T07:39:33.000Z,98539.38
2018-12-10T07:42:04.117Z,98540.48
2018-12-10T07:44:34.793Z,98540.23
2018-12-10T07:47:05.834Z,98548.95
2018-12-10T07:49:36.677Z,98541.10
2018-12-10T07:52:07.314Z,98549.27
2018-12-10T07:54:37.900Z,98550.42
2018-12-10T07:57:08.550Z,98549.70
2018-12-10T07:59:39.143Z,98553.23
2018-12-10T08:02:09.718Z,98555.96
2018-12-10T08:04:40.352Z,98551.47
2018-12-10T08:07:11.333Z,98555.75
2018-12-10T08:09:42.205Z,98550.31
2018-12-10T08:12:13.169Z,98558.96
2018-12-10T08:14:44.841Z,98570.95
2018-12-10T08:17:15.699Z,98577.22
2018-12-10T08:19:46.300Z,98573.95
2018-12-10T08:22:16.860Z,98575.64
2018-12-10T08:24:47.446Z,98578.99
2018-12-10T08:27:17.998Z,98577.70
2018-12-10T08:29:48.721Z,98575.72
2018-12-10T08:32:19.343Z,98577.27
2018-12-10T08:34:50.290Z,98574.68
2018-12-10T08:37:21.222Z,98578.23
2018-12-10T08:39:51.863Z,98583.85
2018-12-10T08:42:22.424Z,98589.97
2018-12-10T08:44:54.456Z,98594.55
2018-12-10T08:47:25.050Z,98590.27
2018-12-10T08:49:55.631Z,98598.05
2018-12-10T08:52:26.230Z,98594.62
2018-12-10T08:54:56.867Z,98598.51
2018-12-10T08:57:27.498Z,98602.26
2018-12-10T08:59:58.126Z,98599.27
2018-12-10T09:02:29.192Z,98600.89
2018-12-10T09:04:59.990Z,98603.49
2018-12-10T09:07:30.634Z,98603.49
2018-12-10T09:10:01.200Z,98604.72
2018-12-10T09:12:32.513Z,98600.87
2018-12-10T09:15:03.160Z,98610.77
2018-12-10T09:17:34.023Z,98616.75
2018-12-10T09:20:05.858Z,98615.67
2018-12-10T09:22:36.448Z,98616.22
2018-12-10T09:25:08.239Z,98618.95
2018-12-10T09:27:38.863Z,98611.93
2018-12-10T09:30:14.290Z,98617.12
2018-12-10T09:32:44.870Z,98620.87
2018-12-10T09:35:16.035Z,98623.10
2018-12-10T09:37:46.675Z,98611.83
2018-12-10T09:40:17.706Z,98617.70
2018-12-10T09:42:49.953Z,98614.89
2018-12-10T09:45:20.974Z,98615.28
2018-12-10T09:47:51.537Z,98618.95
2018-12-10T09:50:22.638Z,98619.61
2018-12-10T09:52:53.183Z,98623.64
2018-12-10T09:55:24.173Z,98623.64
2018-12-10T09:57:54.771Z,98627.17
2018-12-10T10:00:25.778Z,98631.97
2018-12-10T10:02:56.353Z,98634.34
2018-12-10T10:05:26.933Z,98627.89
2018-12-10T10:07:57.500Z,98629.19
2018-12-10T10:10:28.069Z,98638.81
2018-12-10T10:12:58.705Z,98634.70
2018-12-10T10:15:30.122Z,98636.22
2018-12-10T10:18:00.691Z,98633.19
2018-12-10T10:20:31.331Z,98637.66
2018-12-10T10:23:01.883Z,98639.97
2018-12-10T10:25:32.507Z,98636.14
2018-12-10T10:28:03.082Z,98632.90
2018-12-10T10:30:33.748Z,98641.44
2018-12-10T10:33:04.754Z,98636.62
2018-12-10T10:35:35.325Z,98639.53
2018-12-10T10:38:05.937Z,98644.26
2018-12-10T10:40:36.528Z,98640.14
2018-12-10T10:43:07.102Z,98638.85
2018-12-10T10:45:39.062Z,98633.73
2018-12-10T10:48:09.719Z,98635.28
2018-12-10T10:50:40.330Z,98635.89
2018-12-10T10:53:10.922Z,98623.60
2018-12-10T10:55:41.509Z,98633.38
2018-12-10T10:58:12.120Z,98630.20
2018-12-10T11:00:47.979Z,98633.70
2018-12-10T11:03:23.937Z,98631.93
2018-12-10T11:05:54.539Z,98631.39
2018-12-10T11:08:25.388Z,98636.19
2018-12-10T11:10:56.537Z,98633.08
2018-12-10T11:13:27.138Z,98631.28
2018-12-10T11:15:58.157Z,98633.30
2018-12-10T11:18:29.204Z,98638.02
2018-12-10T11:20:59.798Z,98645.19
2018-12-10T11:23:30.392Z,98635.57
2018-12-10T11:26:00.961Z,98638.48
2018-12-10T11:28:31.583Z,98642.38
2018-12-10T11:31:02.494Z,98633.70
2018-12-10T11:33:33.134Z,98635.16
2018-12-10T11:36:04.134Z,98623.41
2018-12-10T11:38:34.797Z,98624.27
2018-12-10T11:41:05.487Z,98625.64
2018-12-10T11:43:36.070Z,98616.41
2018-12-10T11:46:06.656Z,98621.81
2018-12-10T11:48:37.232Z,98615.39
2018-12-10T11:51:07.825Z,98612.58
2018-12-10T11:53:38.454Z,98616.69
2018-12-10T11:56:09.909Z,98603.58
2018-12-10T11:58:40.545Z,98605.55
2018-12-10T12:01:11.131Z,98602.20
2018-12-10T12:03:41.707Z,98603.35
2018-12-10T12:06:14.022Z,98607.61
2018-12-10T12:08:44.618Z,98596.71
2018-12-10T12:11:15.305Z,98607.70
2018-12-10T12:13:45.879Z,98604.17
2018-12-10T12:16:17.031Z,98596.94
2018-12-10T12:18:47.630Z,98592.05
2018-12-10T12:21:19.287Z,98600.21
2018-12-10T12:23:49.958Z,98593.57
2018-12-10T12:26:20.573Z,98598.69
2018-12-10T12:28:51.171Z,98586.94
2018-12-10T12:31:21.865Z,98594.01
2018-12-10T12:33:52.463Z,98593.88
2018-12-10T12:36:23.078Z,98596.39
2018-12-10T12:38:53.688Z,98580.20
2018-12-10T12:41:24.250Z,98586.22
2018-12-10T12:43:54.842Z,98588.61
2018-12-10T12:46:26.365Z,98590.37
2018-12-10T12:48:56.950Z,98576.84
2018-12-10T12:51:27.974Z,98583.56
2018-12-10T12:53:58.585Z,98573.50
2018-12-10T12:56:29.581Z,98572.48
2018-12-10T12:59:00.199Z,98577.24
2018-12-10T13:01:30.822Z,98574.39
2018-12-10T13:04:02.145Z,98576.63
2018-12-10T13:06:32.775Z,98572.03
2018-12-10T13:09:03.690Z,98574.78
2018-12-10T13:11:37.133Z,98571.36
2018-12-10T13:14:08.185Z,98574.80
2018-12-10T13:16:38.779Z,98566.22
2018-12-10T13:19:09.335Z,98572.95
2018-12-10T13:21:39.970Z,98569.30
2018-12-10T13:24:10.539Z,98560.56
2018-12-10T13:26:42.599Z,98559.50
2018-12-10T13:29:13.470Z,98556.67
2018-12-10T13:31:44.570Z,98548.72
2018-12-10T13:34:15.161Z,98550.29
2018-12-10T13:36:45.766Z,98536.98
2018-12-10T13:39:16.317Z,98532.16
2018-12-10T13:41:46.979Z,98544.98
2018-12-10T13:44:17.597Z,98538.73
2018-12-10T13:46:48.468Z,98537.03
2018-12-10T13:49:19.297Z,98543.77
2018-12-10T13:51:49.882Z,98545.61
2018-12-10T13:54:20.929Z,98543.30
2018-12-10T13:56:51.518Z,98538.09
2018-12-10T13:59:22.114Z,98538.41
2018-12-10T14:01:52.697Z,98539.50
2018-12-10T14:07:18.427Z,98534.91
2018-12-10T14:09:49.280Z,98532.70
2018-12-10T14:12:19.948Z,98536.36
2018-12-10T14:14:50.639Z,98541.19
2018-12-10T14:17:22.218Z,98545.84
2018-12-10T14:19:53.043Z,98542.69
2018-12-10T14:22:23.804Z,98546.44
2018-12-10T14:24:55.331Z,98538.20
2018-12-10T14:27:26.370Z,98543.40
2018-12-10T14:29:57.089Z,98539.11
2018-12-10T14:32:27.701Z,98532.16
2018-12-10T14:34:58.313Z,98535.22
2018-12-10T14:37:28.990Z,98537.81
2018-12-10T14:39:59.616Z,98537.58
2018-12-10T14:42:30.182Z,98536.20
2018-12-10T14:45:01.741Z,98531.11
2018-12-10T14:47:32.335Z,98536.31
2018-12-10T14:50:02.928Z,98545.75
2018-12-10T14:52:34.012Z,98542.80
2018-12-10T14:55:06.090Z,98541.66
2018-12-10T14:57:37.004Z,98541.18
2018-12-10T15:00:10.044Z,98539.13
2018-12-10T15:02:40.739Z,98541.94
2018-12-10T15:05:13.358Z,98541.42
2018-12-10T15:07:43.938Z,98538.36
2018-12-10T15:10:15.165Z,98537.81
2018-12-10T15:12:45.802Z,98536.91
2018-12-10T15:15:16.366Z,98535.84
2018-12-10T15:17:46.968Z,98543.24
2018-12-10T15:20:18.074Z,98546.16
2018-12-10T15:22:48.749Z,98545.68
2018-12-10T15:25:20.113Z,98538.73
2018-12-10T15:27:50.850Z,98535.30
2018-12-10T15:30:21.494Z,98531.09
2018-12-10T15:32:52.399Z,98528.28
2018-12-10T15:35:24.293Z,98531.71
2018-12-10T15:37:54.977Z,98531.55
2018-12-10T15:40:25.635Z,98527.06
2018-12-10T15:42:56.242Z,98528.88
2018-12-10T15:45:27.815Z,98528.56
2018-12-10T15:47:58.497Z,98527.73
2018-12-10T15:50:29.098Z,98529.22
2018-12-10T15:52:59.671Z,98526.44
2018-12-10T15:55:30.345Z,98528.36
2018-12-10T15:58:00.918Z,98523.47
2018-12-10T16:00:31.637Z,98529.28
2018-12-10T16:03:02.525Z,98528.45
2018-12-10T16:05:33.912Z,98530.58
2018-12-10T16:08:04.526Z,98532.95
2018-12-10T16:10:35.130Z,98528.66
2018-12-10T16:13:05.760Z,98531.33
2018-12-10T16:15:37.169Z,98528.45
2018-12-10T16:18:08.252Z,98534.16
2018-12-10T16:20:38.847Z,98540.64
2018-12-10T16:23:10.138Z,98544.86
2018-12-10T16:25:41.282Z,98541.87
2018-12-10T16:28:13.202Z,98546.77
2018-12-10T16:30:44.430Z,98544.69
2018-12-10T16:33:15.581Z,98552.02
2018-12-10T16:35:47.282Z,98537.28
2018-12-10T16:38:17.921Z,98533.18
2018-12-10T16:40:48.526Z,98525.25
2018-12-10T16:43:19.166Z,98519.96
2018-12-10T16:45:50.215Z,98519.27
2018-12-10T16:48:21.366Z,98514.30
2018-12-10T16:50:51.972Z,98512.19
2018-12-10T16:53:22.710Z,98525.14
2018-12-10T16:55:53.749Z,98523.37
2018-12-10T16:58:24.606Z,98526.52
2018-12-10T17:00:55.287Z,98523.77
2018-12-10T17:03:25.983Z,98525.83
2018-12-10T17:05:56.553Z,98521.16
2018-12-10T17:08:27.343Z,98522.23
2018-12-10T17:10:57.923Z,98519.72
2018-12-10T17:13:28.528Z,98515.11
2018-12-10T17:15:59.321Z,98516.58
2018-12-10T17:18:30.177Z,98515.89
2018-12-10T17:21:00.790Z,98513.23
2018-12-10T17:23:31.429Z,98512.37
2018-12-10T17:26:02.133Z,98515.90
2018-12-10T17:28:32.749Z,98523.43
2018-12-10T17:31:03.341Z,98528.15
2018-12-10T17:33:33.951Z,98525.13
2018-12-10T17:36:04.578Z,98520.30
2018-12-10T17:38:35.181Z,98521.98
2018-12-10T17:41:06.824Z,98532.22
2018-12-10T17:43:37.405Z,98529.52
2018-12-10T17:46:08.001Z,98527.47
2018-12-10T17:48:38.715Z,98525.48
2018-12-10T17:51:09.314Z,98521.66
2018-12-10T17:53:40.026Z,98517.92
2018-12-10T17:56:10.949Z,98509.14
2018-12-10T17:58:42.029Z,98512.34
2018-12-10T18:01:12.931Z,98514.47
2018-12-10T18:03:43.654Z,98512.56
2018-12-10T18:06:14.299Z,98507.63
2018-12-10T18:08:45.147Z,98505.57
2018-12-10T18:11:15.777Z,98495.02
2018-12-10T18:13:46.707Z,98489.77
2018-12-10T18:16:17.281Z,98503.05
2018-12-10T18:18:48.153Z,98504.71
2018-12-10T18:21:18.809Z,98498.38
2018-12-10T18:23:49.421Z,98495.09
2018-12-10T18:26:20.355Z,98510.80
2018-12-10T18:28:51.057Z,98524.22
2018-12-10T18:31:21.715Z,98560.28
2018-12-10T18:33:52.963Z,98563.88
2018-12-10T18:36:23.897Z,98566.25
2018-12-10T18:38:54.857Z,98575.20
2018-12-10T18:41:26.205Z,98588.15
2018-12-10T18:43:57.374Z,98587.50
2018-12-10T18:46:28.642Z,98589.49
2018-12-10T18:48:59.546Z,98590.09
2018-12-10T18:51:30.461Z,98592.56
2018-12-10T18:54:01.507Z,98590.45
2018-12-10T18:56:33.327Z,98601.28
2018-12-10T18:59:10.838Z,98615.64
2018-12-10T19:01:41.761Z,98619.64
2018-12-10T19:04:12.728Z,98617.70
2018-12-10T19:06:43.663Z,98627.52
2018-12-10T19:09:15.281Z,98626.47
2018-12-10T19:11:46.148Z,98625.42
2018-12-10T19:14:17.007Z,98628.29
2018-12-10T19:16:47.950Z,98630.94
2018-12-10T19:19:18.885Z,98632.81
2018-12-10T19:21:49.899Z,98633.77
2018-12-10T19:24:20.876Z,98637.52
2018-12-10T19:26:51.890Z,98643.00
2018-12-10T19:29:22.808Z,98645.03
2018-12-10T19:31:53.773Z,98639.59
2018-12-10T19:34:24.698Z,98644.11
2018-12-10T19:36:55.772Z,98633.70
2018-12-10T19:39:27.298Z,98637.06
2018-12-10T19:41:58.338Z,98626.53
2018-12-10T19:44:29.499Z,98626.53
2018-12-10T19:47:00.413Z,98621.84
2018-12-10T19:49:31.701Z,98624.24
2018-12-10T19:52:02.720Z,98610.91
2018-12-10T19:54:33.935Z,98621.19
2018-12-10T19:57:05.336Z,98613.03
2018-12-10T19:59:36.472Z,98617.84
2018-12-10T20:02:08.737Z,98627.25
2018-12-10T20:04:39.747Z,98624.30
2018-12-10T20:07:10.889Z,98628.17
2018-12-10T20:09:41.812Z,98628.55
2018-12-10T20:12:13.182Z,98634.89
2018-12-10T20:14:44.214Z,98631.36
2018-12-10T20:17:15.220Z,98629.60
2018-12-10T20:19:46.485Z,98636.41
2018-12-10T20:22:17.772Z,98633.12
2018-12-10T20:24:48.670Z,98633.42
2018-12-10T20:27:19.663Z,98634.59
2018-12-10T20:29:51.587Z,98647.27
2018-12-10T20:32:22.743Z,98645.92
2018-12-10T20:34:53.995Z,98652.75
2018-12-10T20:37:25.122Z,98652.33
2018-12-10T20:39:56.333Z,98653.61
2018-12-10T20:42:27.724Z,98658.84
2018-12-10T20:44:58.637Z,98663.73
2018-12-10T20:47:30.015Z,98664.25
2018-12-10T20:50:00.926Z,98670.70
2018-12-10T20:52:32.109Z,98678.72
2018-12-10T20:55:04.068Z,98671.25
2018-12-10T20:57:41.364Z,98675.95
2018-12-10T21:00:10.019Z,98673.83
2018-12-10T21:02:40.948Z,98669.78
2018-12-10T21:05:11.880Z,98671.71
2018-12-10T21:07:42.829Z,98677.83
2018-12-10T21:10:13.749Z,98685.47
2018-12-10T21:12:44.758Z,98692.53
2018-12-10T21:15:15.702Z,98692.65
2018-12-10T21:17:46.888Z,98698.63
2018-12-10T21:20:17.507Z,98701.92
2018-12-10T21:22:48.963Z,98702.22
2018-12-10T21:25:19.947Z,98695.63
2018-12-10T21:27:51.334Z,98697.27
2018-12-10T21:30:22.290Z,98704.63
2018-12-10T21:32:53.738Z,98703.93
2018-12-10T21:35:24.597Z,98703.28
2018-12-10T21:37:55.534Z,98704.56
2018-12-10T21:40:26.483Z,98709.62
2018-12-10T21:42:57.598Z,98714.45
2018-12-10T21:45:28.517Z,98716.52
2018-12-10T21:47:59.487Z,98713.41
2018-12-10T21:50:30.346Z,98716.75
2018-12-10T21:53:01.062Z,98711.45
2018-12-10T21:55:31.975Z,98712.05
2018-12-10T21:58:02.568Z,98707.59
2018-12-10T22:00:33.702Z,98711.30
2018-12-10T22:03:05.481Z,98708.22
2018-12-10T22:05:36.374Z,98703.75
2018-12-10T22:08:07.490Z,98708.98
2018-12-10T22:10:38.801Z,98707.05
2018-12-10T22:13:10.289Z,98704.11
2018-12-10T22:15:41.209Z,98698.42
2018-12-10T22:18:12.265Z,98692.36
2018-12-10T22:20:43.170Z,98700.52
2018-12-10T22:23:14.369Z,98695.46
2018-12-10T22:25:45.268Z,98705.06
2018-12-10T22:28:16.094Z,98700.88
2018-12-10T22:30:47.047Z,98704.23
2018-12-10T22:33:17.987Z,98700.94
2018-12-10T22:35:48.922Z,98698.78
2018-12-10T22:38:20.578Z,98701.70
2018-12-10T22:40:51.428Z,98701.36
2018-12-10T22:43:22.554Z,98696.13
2018-12-10T22:45:53.486Z,98690.41
2018-12-10T22:48:24.416Z,98686.59
2018-12-10T22:50:55.027Z,98683.20
2018-12-10T22:53:25.989Z,98688.89
2018-12-10T22:55:56.593Z,98691.94
2018-12-10T22:58:27.254Z,98692.31
2018-12-10T23:00:57.998Z,98694.34
2018-12-10T23:03:28.608Z,98697.65
2018-12-10T23:05:59.911Z,98695.70
2018-12-10T23:08:30.477Z,98690.84
2018-12-10T23:11:01.526Z,98702.82
2018-12-10T23:13:33.895Z,98695.00
2018-12-10T23:16:05.023Z,98697.13
2018-12-10T23:18:36.274Z,98691.23
2018-12-10T23:21:08.594Z,98694.59
2018-12-10T23:23:39.717Z,98693.13
2018-12-10T23:26:10.713Z,98695.71
2018-12-10T23:28:41.357Z,98691.65
2018-12-10T23:31:12.118Z,98694.36
2018-12-10T23:33:42.951Z,98696.45
2018-12-10T23:36:14.158Z,98695.66
2018-12-10T23:38:44.734Z,98697.00
2018-12-10T23:41:17.214Z,98693.13
2018-12-10T23:43:49.724Z,98690.87
2018-12-10T23:46:20.602Z,98693.13
2018-12-10T23:48:52.021Z,98696.11
2018-12-10T23:51:23.704Z,98694.42
2018-12-10T23:53:54.627Z,98686.66
2018-12-10T23:56:25.278Z,98692.23
2018-12-10T23:58:56.305Z,98691.34
